createdAt,value
2023-03-14T00:04:21.863Z,27.692307692307693
2023-03-14T00:13:56.340Z,23.110367892976587
2023-03-14T00:20:15.765Z,20.076923076923077
2023-03-14T00:26:36.245Z,22.187290969899667
2023-03-14T00:32:55.488Z,20.39799331103679
2023-03-14T00:39:14.742Z,21.568561872909697
2023-03-14T00:51:39.022Z,25.705685618729095
2023-03-14T01:00:56.724Z,30.240802675585286
2023-03-14T01:10:05.838Z,28.612040133779264
2023-03-14T01:16:29.245Z,38.070234113712374
2023-03-14T01:22:47.678Z,40.220735785953174
2023-03-14T01:31:31.826Z,42.69230769230769
2023-03-14T01:37:51.169Z,40.531772575250834
2023-03-14T01:47:14.278Z,44.47826086956522
2023-03-14T01:53:33.102Z,42.26086956521739
2023-03-14T01:59:52.154Z,40.43478260869565
2023-03-14T02:06:11.087Z,38.240802675585286
2023-03-14T02:12:29.597Z,40.10033444816054
2023-03-14T02:18:48.449Z,38.618729096989966
2023-03-14T02:25:07.764Z,39.458193979933114
2023-03-14T02:31:27.659Z,35.11371237458194
2023-03-14T02:37:47.856Z,38.91304347826087
2023-03-14T02:44:06.759Z,48.013377926421406
2023-03-14T02:50:25.905Z,38.103678929765884
2023-03-14T02:59:26.462Z,29.48829431438127
2023-03-14T03:05:45.074Z,29.879598662207357
2023-03-14T03:12:03.635Z,25.110367892976587
2023-03-14T03:18:22.397Z,23.959866220735787
2023-03-14T03:30:09.404Z,20.846153846153847
2023-03-14T03:38:03.670Z,26.4247491638796
2023-03-14T03:44:23.259Z,24.67558528428094
2023-03-14T03:56:34.786Z,28.137123745819398
2023-03-14T04:07:02.525Z,29.956521739130434
2023-03-14T04:13:21.416Z,33.36789297658863
2023-03-14T04:19:39.974Z,22.02675585284281
2023-03-14T04:25:58.182Z,27.224080267558527
2023-03-14T04:32:17.054Z,23.525083612040135
2023-03-14T04:38:35.205Z,24.036789297658864
2023-03-14T04:44:53.606Z,22.892976588628763
2023-03-14T04:56:14.728Z,22.60200668896321
2023-03-14T05:02:33.375Z,23.317725752508363
2023-03-14T05:14:59.339Z,16.160535117056856
2023-03-14T05:21:18.167Z,14.010033444816054
2023-03-14T05:27:36.158Z,9.481605351170568
2023-03-14T05:33:54.149Z,9.531772575250836
2023-03-14T05:43:20.294Z,7.173913043478261
2023-03-14T05:49:38.529Z,9.394648829431437
2023-03-14T05:55:58.229Z,6.374581939799331
2023-03-14T06:02:19.148Z,7.468227424749164
2023-03-14T06:08:40.472Z,8.695652173913043
2023-03-14T06:15:02.552Z,4.377926421404682
2023-03-14T06:21:26.101Z,5.809364548494983
2023-03-14T06:32:49.065Z,3.702341137123746
2023-03-14T06:39:32.855Z,3.411371237458194
2023-03-14T06:46:00.321Z,6.9799331103678925
2023-03-14T06:52:24.648Z,7.812709030100335
2023-03-14T07:04:47.770Z,6.561872909698996
2023-03-14T07:11:10.987Z,6.926421404682274
2023-03-14T07:17:36.748Z,8.88628762541806
2023-03-14T07:23:57.876Z,10.137123745819398
2023-03-14T07:30:18.454Z,13.060200668896321
2023-03-14T07:39:32.891Z,10.34448160535117
2023-03-14T07:45:59.136Z,11.34448160535117
2023-03-14T07:52:20.541Z,13.68561872909699
2023-03-14T07:58:41.718Z,13.508361204013378
2023-03-14T08:15:44.986Z,11.709030100334449
2023-03-14T08:22:06.022Z,11.147157190635452
2023-03-14T08:29:17.982Z,8.03010033444816
2023-03-14T08:35:38.929Z,11.866220735785953
2023-03-14T08:47:19.864Z,10.120401337792643
2023-03-14T08:53:40.710Z,8.280936454849499
2023-03-14T09:00:02.605Z,6.518394648829432
2023-03-14T09:18:28.004Z,8.548494983277592
2023-03-14T09:27:01.634Z,2.210702341137124
2023-03-14T09:34:28.538Z,1.7993311036789297
2023-03-14T09:40:49.200Z,3.4849498327759196
2023-03-14T09:47:10.814Z,2.0434782608695654
2023-03-14T09:53:32.329Z,1.9698996655518395
2023-03-14T09:59:53.621Z,1.9230769230769231
2023-03-14T10:06:15.576Z,1.6688963210702341
2023-03-14T10:12:36.514Z,4.709030100334449
2023-03-14T10:19:12.880Z,4.441471571906354
2023-03-14T10:25:34.552Z,2.809364548494983
2023-03-14T10:31:55.420Z,1.9030100334448161
2023-03-14T10:38:16.711Z,3.3979933110367893
2023-03-14T10:44:49.677Z,4.749163879598663
2023-03-14T10:51:11.032Z,8.046822742474916
2023-03-14T10:57:32.005Z,9.842809364548495
2023-03-14T11:03:52.691Z,5.725752508361204
2023-03-14T11:10:13.531Z,6.210702341137123
2023-03-14T11:16:34.284Z,9.54180602006689
2023-03-14T11:30:19.611Z,10.451505016722408
2023-03-14T11:36:40.256Z,9.45819397993311
2023-03-14T11:43:01.583Z,10.076923076923077
2023-03-14T11:49:22.876Z,14.94314381270903
2023-03-14T11:58:48.251Z,14.806020066889632
2023-03-14T12:05:09.384Z,16.94648829431438
2023-03-14T12:11:30.845Z,16.765886287625417
2023-03-14T12:17:51.686Z,13.224080267558529
2023-03-14T12:24:12.041Z,15.40133779264214
2023-03-14T12:30:33.270Z,10.397993311036789
2023-03-14T12:36:53.985Z,16.785953177257525
2023-03-14T12:43:15.333Z,14.080267558528428
2023-03-14T12:49:35.770Z,35.819397993311036
2023-03-14T12:58:51.443Z,20.668896321070235
2023-03-14T13:08:33.222Z,13.167224080267559
2023-03-14T13:14:53.927Z,13.264214046822742
2023-03-14T13:25:56.408Z,17.287625418060202
2023-03-14T13:32:17.259Z,18.401337792642142
2023-03-14T13:40:29.375Z,22.678929765886288
2023-03-14T13:49:24.281Z,20.7190635451505
2023-03-14T13:55:44.745Z,17.94983277591973
2023-03-14T14:02:06.125Z,15.090301003344482
2023-03-14T14:12:11.314Z,11.26086956521739
2023-03-14T14:18:35.859Z,8.792642140468228
2023-03-14T14:24:56.645Z,11.424749163879598
2023-03-14T14:31:17.326Z,12.66220735785953
2023-03-14T14:37:40.580Z,12.622073578595318
2023-03-14T14:48:57.955Z,6.926421404682274
2023-03-14T14:59:21.304Z,11.123745819397993
2023-03-14T15:05:42.458Z,12.668896321070234
2023-03-14T15:12:03.313Z,9.525083612040135
2023-03-14T15:22:12.776Z,11.177257525083611
2023-03-14T15:28:34.350Z,25.277591973244146
2023-03-14T15:34:56.652Z,14.832775919732441
2023-03-14T15:41:21.340Z,23.48160535117057
2023-03-14T15:47:42.935Z,14.695652173913043
2023-03-14T15:56:10.723Z,7.5719063545150505
2023-03-14T16:02:31.708Z,11.575250836120402
2023-03-14T16:08:52.983Z,13.812709030100335
2023-03-14T16:15:13.649Z,12.341137123745819
2023-03-14T16:21:35.253Z,10.461538461538462
2023-03-14T16:28:10.439Z,11.652173913043478
2023-03-14T16:34:33.807Z,10.364548494983278
2023-03-14T16:40:56.079Z,11.846153846153847
2023-03-14T16:50:46.731Z,24.34448160535117
2023-03-14T17:01:55.639Z,12.304347826086957
2023-03-14T17:11:49.578Z,11.608695652173912
2023-03-14T17:25:30.178Z,13.976588628762542
2023-03-14T17:31:50.558Z,8.876254180602007
2023-03-14T17:38:09.827Z,11.648829431438127
2023-03-14T17:53:18.402Z,4.642140468227424
2023-03-14T17:59:38.284Z,6.003344481605351
2023-03-14T18:05:57.386Z,8.284280936454849
2023-03-14T18:12:16.118Z,11.642140468227424
2023-03-14T18:22:44.696Z,11.675585284280936
2023-03-14T18:29:03.205Z,13.311036789297658
2023-03-14T18:35:22.101Z,9.899665551839465
2023-03-14T18:41:41.508Z,14.926421404682275
2023-03-14T18:49:11.095Z,29.03010033444816
2023-03-14T18:55:29.994Z,36.17056856187291
2023-03-14T19:01:48.586Z,19.19732441471572
2023-03-14T19:08:07.683Z,21.180602006688964
2023-03-14T19:14:26.969Z,15.866220735785953
2023-03-14T19:20:46.106Z,16.163879598662206
2023-03-14T19:27:07.085Z,17.474916387959865
2023-03-14T19:33:25.902Z,18.622073578595316
2023-03-14T19:39:44.992Z,39.525083612040135
2023-03-14T19:47:36.630Z,20.494983277591974
2023-03-14T19:53:58.321Z,18.22742474916388
2023-03-14T20:00:29.418Z,11.68561872909699
2023-03-14T20:15:10.829Z,10.528428093645484
2023-03-14T20:21:32.238Z,13.297658862876254
2023-03-14T20:27:59.231Z,12.324414715719064
2023-03-14T20:40:12.328Z,21.347826086956523
2023-03-14T20:46:33.165Z,22.301003344481604
2023-03-14T20:52:54.288Z,17.31103678929766
2023-03-14T20:59:15.799Z,19.37458193979933
2023-03-14T21:05:35.444Z,16.665551839464882
2023-03-14T21:11:58.407Z,18.638795986622075
2023-03-14T21:26:17.762Z,24.67558528428094
2023-03-14T21:32:38.305Z,15.107023411371237
2023-03-14T21:38:57.484Z,17.16722408026756
2023-03-14T21:45:15.881Z,18.785953177257525
2023-03-14T22:02:01.167Z,13.648829431438127
2023-03-14T22:08:19.551Z,18.401337792642142
2023-03-14T22:18:58.715Z,24.983277591973245
2023-03-14T22:25:16.847Z,17.745819397993312
2023-03-14T22:31:35.148Z,24.94983277591973
2023-03-14T22:37:53.751Z,14.247491638795987
2023-03-14T22:44:12.111Z,15.558528428093645
2023-03-14T22:50:30.222Z,13.280936454849499
2023-03-14T22:56:47.918Z,13.0
2023-03-14T23:07:37.452Z,14.959866220735785
2023-03-14T23:13:55.536Z,14.033444816053512
2023-03-14T23:20:13.717Z,10.658862876254181
2023-03-14T23:26:31.727Z,22.83277591973244
2023-03-14T23:32:49.442Z,16.17725752508361
2023-03-14T23:39:07.628Z,14.909698996655518
2023-03-14T23:45:25.613Z,14.735785953177258
2023-03-14T23:51:43.946Z,17.05351170568562
2023-03-14T23:58:01.956Z,11.120401337792643
